Time;durP1;ratioP1;P1;durP2;ratioP2;P2;SDS_P1;SDS_P2;PMS_P1;PMS_P2;Temp;Humidity;BMP_temperature;BMP_pressure;BME280_temperature;BME280_humidity;BME280_pressure;Samples;Min_cycle;Max_cycle;Signal;HPM_P1;HPM_P2
2021/12/01 00:00:19;;;;;;;;;;;20.70;47.80;;;;;;3133481;28;19986;-61
2021/12/01 00:01:50;;;;;;;;;;;20.80;47.70;;;;;;3139361;28;20345;-62
2021/12/01 00:03:22;;;;;;;;;;;20.80;47.50;;;;;;3141988;28;19925;-62
2021/12/01 00:04:54;;;;;;;;;;;20.80;47.60;;;;;;3135842;28;19932;-62
2021/12/01 00:06:26;;;;;;;;;;;20.80;47.60;;;;;;3135140;28;19932;-62
2021/12/01 00:07:57;;;;;;;;;;;20.90;47.60;;;;;;3134685;28;20335;-61
2021/12/01 00:09:29;;;;;;;;;;;20.90;47.60;;;;;;3134226;28;19929;-62
2021/12/01 00:10:59;;;;;;;;;;;20.90;47.60;;;;;;3134232;28;19933;-62
2021/12/01 00:12:31;;;;;;;;;;;20.80;47.60;;;;;;3134781;28;19920;-63
2021/12/01 00:14:03;;;;;;;;;;;20.90;47.60;;;;;;3125725;28;19925;-62
2021/12/01 00:15:33;;;;;;;;;;;20.90;47.50;;;;;;3133260;28;19925;-61
2021/12/01 00:17:10;;;;;;;;;;;20.90;47.50;;;;;;3134651;28;20738;-61
2021/12/01 00:18:43;;;;;;;;;;;20.90;47.50;;;;;;3134442;28;19995;-62
2021/12/01 00:20:16;;;;;;;;;;;20.90;47.60;;;;;;3132235;28;19928;-62
2021/12/01 00:21:47;;;;;;;;;;;20.90;47.60;;;;;;3134007;28;19925;-62
2021/12/01 00:23:19;;;;;;;;;;;20.90;47.50;;;;;;3134627;28;20372;-62
2021/12/01 00:24:50;;;;;;;;;;;21.00;47.60;;;;;;3131723;28;19964;-62
2021/12/01 00:26:22;;;;;;;;;;;21.00;47.50;;;;;;3131595;28;19925;-61
2021/12/01 00:27:54;;;;;;;;;;;21.00;47.60;;;;;;3135444;28;20404;-62
2021/12/01 00:29:26;;;;;;;;;;;21.00;47.60;;;;;;3134088;28;19925;-62
2021/12/01 00:30:57;;;;;;;;;;;21.00;47.50;;;;;;3132959;28;20348;-62
2021/12/01 00:32:29;;;;;;;;;;;21.00;47.60;;;;;;3134593;28;19983;-62
2021/12/01 00:34:02;;;;;;;;;;;21.00;47.40;;;;;;3135276;28;19925;-61
2021/12/01 00:35:33;;;;;;;;;;;21.00;47.50;;;;;;3134101;28;19929;-62
2021/12/01 00:37:05;;;;;;;;;;;21.00;47.50;;;;;;3134539;28;19925;-62
2021/12/01 00:38:37;;;;;;;;;;;21.00;47.50;;;;;;3133719;28;20611;-62
2021/12/01 00:40:09;;;;;;;;;;;21.10;47.60;;;;;;3133572;28;19925;-62
2021/12/01 00:41:40;;;;;;;;;;;21.10;47.50;;;;;;3134528;28;19936;-62
2021/12/01 00:43:17;;;;;;;;;;;21.10;47.50;;;;;;3132450;28;20433;-62
2021/12/01 00:44:55;;;;;;;;;;;21.10;47.50;;;;;;3133337;28;19979;-62
2021/12/01 00:46:38;;;;;;;;;;;21.10;47.50;;;;;;3134115;28;19929;-61
2021/12/01 00:48:10;;;;;;;;;;;21.10;47.40;;;;;;3128231;28;20023;-62
2021/12/01 00:49:43;;;;;;;;;;;21.10;47.30;;;;;;3133928;28;20422;-61
2021/12/01 00:51:16;;;;;;;;;;;21.10;47.30;;;;;;3129144;28;19953;-62
2021/12/01 00:52:47;;;;;;;;;;;21.10;47.40;;;;;;3136333;28;20066;-62
2021/12/01 00:54:19;;;;;;;;;;;21.10;47.60;;;;;;3133347;28;19937;-62
2021/12/01 00:55:50;;;;;;;;;;;21.10;47.60;;;;;;3134044;28;19928;-61
2021/12/01 00:57:22;;;;;;;;;;;21.10;47.60;;;;;;3128483;28;19944;-61
2021/12/01 00:58:53;;;;;;;;;;;21.10;47.60;;;;;;3132219;28;20412;-62
2021/12/01 01:00:25;;;;;;;;;;;21.00;47.50;;;;;;3133682;28;19939;-62
2021/12/01 01:01:58;;;;;;;;;;;21.10;47.60;;;;;;3134188;28;20388;-62
2021/12/01 01:03:31;;;;;;;;;;;21.10;48.20;;;;;;3137633;28;19931;-62
2021/12/01 01:05:04;;;;;;;;;;;21.10;47.70;;;;;;3128034;28;19932;-61
2021/12/01 01:06:35;;;;;;;;;;;21.10;47.60;;;;;;3134019;28;19932;-62
2021/12/01 01:08:07;;;;;;;;;;;21.10;47.60;;;;;;3133012;28;19932;-62
2021/12/01 01:09:40;;;;;;;;;;;21.10;47.60;;;;;;3133314;28;19924;-61
2021/12/01 01:16:36;;;;;;;;;;;21.10;47.50;;;;;;3126871;28;20377;-62
2021/12/01 01:18:08;;;;;;;;;;;21.10;47.60;;;;;;3133453;28;19928;-61
2021/12/01 01:19:39;;;;;;;;;;;21.10;47.70;;;;;;3133174;28;20392;-61
2021/12/01 01:21:12;;;;;;;;;;;21.10;47.60;;;;;;3139539;28;20343;-61
2021/12/01 01:22:44;;;;;;;;;;;21.10;47.70;;;;;;3137085;28;20346;-62
2021/12/01 01:24:15;;;;;;;;;;;21.10;47.60;;;;;;3133206;28;19932;-62
2021/12/01 01:25:46;;;;;;;;;;;21.10;47.70;;;;;;3133173;28;19925;-62
2021/12/01 01:27:18;;;;;;;;;;;21.10;47.70;;;;;;3134078;28;19924;-62
2021/12/01 01:28:49;;;;;;;;;;;21.10;47.70;;;;;;3136571;28;19925;-62
2021/12/01 01:30:21;;;;;;;;;;;21.10;47.70;;;;;;3133043;28;19931;-62
2021/12/01 01:31:53;;;;;;;;;;;21.10;47.80;;;;;;3134645;28;19925;-62
2021/12/01 01:33:25;;;;;;;;;;;21.10;47.70;;;;;;3138687;28;19924;-62
2021/12/01 01:34:56;;;;;;;;;;;21.10;47.70;;;;;;3134628;28;19924;-62
2021/12/01 01:36:29;;;;;;;;;;;21.10;47.70;;;;;;3141936;28;19944;-61
2021/12/01 01:38:01;;;;;;;;;;;21.10;47.70;;;;;;3133670;28;20295;-62
2021/12/01 01:39:32;;;;;;;;;;;21.10;47.70;;;;;;3133982;28;19931;-62
2021/12/01 01:41:05;;;;;;;;;;;21.10;47.80;;;;;;3133962;28;19925;-61
2021/12/01 01:42:37;;;;;;;;;;;21.10;47.70;;;;;;3133540;28;19929;-62
2021/12/01 01:44:09;;;;;;;;;;;21.10;47.70;;;;;;3133013;28;19981;-61
2021/12/01 01:45:40;;;;;;;;;;;21.10;47.80;;;;;;3133107;28;19924;-61
2021/12/01 01:47:12;;;;;;;;;;;21.10;47.80;;;;;;3133779;28;20299;-62
2021/12/01 01:48:49;;;;;;;;;;;21.10;47.80;;;;;;3133269;28;20335;-62
2021/12/01 01:50:34;;;;;;;;;;;21.10;47.70;;;;;;3126258;28;20012;-62
2021/12/01 01:52:07;;;;;;;;;;;21.10;47.70;;;;;;3126597;28;19921;-62
2021/12/01 01:53:39;;;;;;;;;;;21.10;47.70;;;;;;3132745;28;19924;-61
2021/12/01 01:55:10;;;;;;;;;;;21.10;47.60;;;;;;3133364;28;19924;-63
2021/12/01 01:56:43;;;;;;;;;;;21.20;47.70;;;;;;3132820;28;19924;-62
2021/12/01 01:58:15;;;;;;;;;;;21.10;47.70;;;;;;3146441;28;19928;-62
2021/12/01 01:59:47;;;;;;;;;;;21.10;47.70;;;;;;3132646;28;20339;-62
2021/12/01 02:01:32;;;;;;;;;;;21.20;47.70;;;;;;3120467;28;19936;-62
2021/12/01 02:03:04;;;;;;;;;;;21.20;47.80;;;;;;3130812;28;19935;-62
2021/12/01 02:04:35;;;;;;;;;;;21.20;47.70;;;;;;3133265;28;19986;-63
2021/12/01 02:06:06;;;;;;;;;;;21.10;47.70;;;;;;3133727;28;19928;-62
2021/12/01 02:07:39;;;;;;;;;;;21.20;47.70;;;;;;3133500;28;19932;-61
2021/12/01 02:09:11;;;;;;;;;;;21.20;47.60;;;;;;3133133;28;20026;-61
2021/12/01 02:10:43;;;;;;;;;;;21.20;47.60;;;;;;3133668;28;19928;-62
2021/12/01 02:12:14;;;;;;;;;;;21.20;47.70;;;;;;3133830;28;20373;-61
2021/12/01 02:13:46;;;;;;;;;;;21.20;48.30;;;;;;3127369;28;19925;-61
2021/12/01 02:15:18;;;;;;;;;;;21.20;47.70;;;;;;3121315;28;19925;-62
2021/12/01 02:16:48;;;;;;;;;;;21.20;47.80;;;;;;3126076;28;19929;-63
2021/12/01 02:18:20;;;;;;;;;;;21.20;47.80;;;;;;3133015;28;20018;-62
2021/12/01 02:19:53;;;;;;;;;;;21.20;47.70;;;;;;3133528;28;19933;-62
2021/12/01 02:21:27;;;;;;;;;;;21.20;47.70;;;;;;3120600;28;19956;-62
2021/12/01 02:22:59;;;;;;;;;;;21.20;47.80;;;;;;3133019;28;20362;-62
2021/12/01 02:24:31;;;;;;;;;;;21.10;47.80;;;;;;3132855;28;19932;-61
2021/12/01 02:26:02;;;;;;;;;;;21.10;47.80;;;;;;3133512;28;19929;-62
2021/12/01 02:27:34;;;;;;;;;;;21.20;47.80;;;;;;3129611;28;19929;-63
2021/12/01 02:29:06;;;;;;;;;;;21.10;47.80;;;;;;3122455;28;19926;-62
2021/12/01 02:30:37;;;;;;;;;;;21.10;47.90;;;;;;3129545;28;19925;-62
2021/12/01 02:32:09;;;;;;;;;;;21.10;47.80;;;;;;3133581;28;19929;-62
2021/12/01 02:33:41;;;;;;;;;;;21.10;48.00;;;;;;3132833;28;19928;-63
2021/12/01 02:35:12;;;;;;;;;;;21.10;47.80;;;;;;3133517;28;20373;-62
2021/12/01 02:36:45;;;;;;;;;;;21.10;47.80;;;;;;3133250;28;19925;-62
2021/12/01 02:38:16;;;;;;;;;;;21.10;47.90;;;;;;3133674;28;20365;-63
2021/12/01 02:39:49;;;;;;;;;;;21.10;47.90;;;;;;3133087;28;19931;-62
2021/12/01 02:41:26;;;;;;;;;;;21.10;47.80;;;;;;3130513;28;19929;-63
2021/12/01 02:42:57;;;;;;;;;;;21.20;47.80;;;;;;3128423;28;19932;-63
2021/12/01 02:44:29;;;;;;;;;;;21.20;47.80;;;;;;3132818;28;19936;-62
2021/12/01 02:46:00;;;;;;;;;;;21.20;47.80;;;;;;3132437;28;20293;-61
2021/12/01 02:47:32;;;;;;;;;;;21.10;47.80;;;;;;3135711;28;19925;-61
2021/12/01 02:49:03;;;;;;;;;;;21.20;47.80;;;;;;3145425;28;19928;-62
2021/12/01 02:50:35;;;;;;;;;;;21.10;47.80;;;;;;3134939;28;19925;-62
2021/12/01 02:52:08;;;;;;;;;;;21.10;47.80;;;;;;3133672;28;20386;-62
2021/12/01 02:53:39;;;;;;;;;;;21.20;47.80;;;;;;3132077;28;19937;-62
2021/12/01 02:55:10;;;;;;;;;;;21.20;47.90;;;;;;3133275;28;19925;-62
2021/12/01 02:56:45;;;;;;;;;;;21.20;47.80;;;;;;3133621;28;20530;-62
2021/12/01 02:58:17;;;;;;;;;;;21.10;47.80;;;;;;3125655;28;19979;-63
2021/12/01 02:59:48;;;;;;;;;;;21.10;47.90;;;;;;3130554;28;19928;-62
2021/12/01 03:01:20;;;;;;;;;;;21.10;47.90;;;;;;3132114;28;20026;-62
2021/12/01 03:02:52;;;;;;;;;;;21.10;47.90;;;;;;3133070;28;19929;-62
2021/12/01 03:04:23;;;;;;;;;;;21.20;48.00;;;;;;3132865;28;20274;-62
2021/12/01 03:05:54;;;;;;;;;;;21.10;47.90;;;;;;3142345;28;19955;-62
2021/12/01 03:07:27;;;;;;;;;;;21.10;47.80;;;;;;3133296;28;20343;-62
2021/12/01 03:08:58;;;;;;;;;;;21.20;47.80;;;;;;3132901;28;19935;-62
2021/12/01 03:10:30;;;;;;;;;;;21.10;47.80;;;;;;3133187;28;19932;-63
2021/12/01 03:12:02;;;;;;;;;;;21.20;47.80;;;;;;3133393;28;19926;-62
2021/12/01 03:13:33;;;;;;;;;;;21.20;47.80;;;;;;3132392;28;19925;-61
2021/12/01 03:15:05;;;;;;;;;;;21.20;47.80;;;;;;3132420;28;19932;-62
2021/12/01 03:16:37;;;;;;;;;;;21.20;47.90;;;;;;3133154;28;19932;-62
2021/12/01 03:18:08;;;;;;;;;;;21.10;47.80;;;;;;3133321;28;20339;-62
2021/12/01 03:19:40;;;;;;;;;;;21.20;47.90;;;;;;3132416;28;19925;-62
2021/12/01 03:21:12;;;;;;;;;;;21.10;47.80;;;;;;3124757;28;20718;-61
2021/12/01 03:22:45;;;;;;;;;;;21.10;47.80;;;;;;3136415;28;19924;-62
2021/12/01 03:24:16;;;;;;;;;;;21.20;47.80;;;;;;3132583;28;19932;-62
2021/12/01 03:25:47;;;;;;;;;;;21.20;47.70;;;;;;3131527;28;19986;-61
2021/12/01 03:27:19;;;;;;;;;;;21.20;47.80;;;;;;3133243;28;20025;-62
2021/12/01 03:28:50;;;;;;;;;;;21.20;47.80;;;;;;3132508;28;19925;-61
2021/12/01 03:30:22;;;;;;;;;;;21.20;47.80;;;;;;3132110;28;19975;-62
2021/12/01 03:31:54;;;;;;;;;;;21.10;47.80;;;;;;3133679;28;19957;-63
2021/12/01 03:33:25;;;;;;;;;;;21.10;47.80;;;;;;3134514;28;20376;-63
2021/12/01 03:34:57;;;;;;;;;;;21.10;47.90;;;;;;3135166;28;20412;-62
2021/12/01 03:36:29;;;;;;;;;;;21.20;47.80;;;;;;3127398;28;19933;-62
2021/12/01 03:38:02;;;;;;;;;;;21.20;47.80;;;;;;3133227;28;19929;-61
2021/12/01 03:39:34;;;;;;;;;;;21.20;47.60;;;;;;3134522;28;19925;-63
2021/12/01 03:41:05;;;;;;;;;;;21.20;47.70;;;;;;3135578;28;20011;-62
2021/12/01 03:42:37;;;;;;;;;;;21.20;47.70;;;;;;3135652;28;20557;-61
2021/12/01 03:44:09;;;;;;;;;;;21.20;47.70;;;;;;3134241;28;19929;-63
2021/12/01 03:45:39;;;;;;;;;;;21.20;47.70;;;;;;3134376;28;19924;-63
2021/12/01 03:47:11;;;;;;;;;;;21.20;47.80;;;;;;3135179;28;19932;-62
2021/12/01 03:48:42;;;;;;;;;;;21.20;47.70;;;;;;3134768;28;19928;-62
2021/12/01 03:50:14;;;;;;;;;;;21.20;47.80;;;;;;3128476;28;19971;-62
2021/12/01 03:51:46;;;;;;;;;;;21.20;47.80;;;;;;3135242;28;20369;-62
2021/12/01 03:53:19;;;;;;;;;;;21.10;47.80;;;;;;3141058;28;20361;-62
2021/12/01 03:54:50;;;;;;;;;;;21.10;47.90;;;;;;3134817;28;19925;-63
2021/12/01 03:56:22;;;;;;;;;;;21.10;47.90;;;;;;3135282;28;19924;-62
2021/12/01 03:57:53;;;;;;;;;;;21.10;47.80;;;;;;3135076;28;19931;-63
2021/12/01 03:59:25;;;;;;;;;;;21.10;47.80;;;;;;3132545;28;20297;-62
2021/12/01 04:00:56;;;;;;;;;;;21.10;47.80;;;;;;3133584;28;19925;-62
2021/12/01 04:02:27;;;;;;;;;;;21.20;47.80;;;;;;3134551;28;19970;-62
2021/12/01 04:03:59;;;;;;;;;;;21.20;47.70;;;;;;3134225;28;19924;-63
2021/12/01 04:05:30;;;;;;;;;;;21.10;47.80;;;;;;3133623;28;20011;-63
2021/12/01 04:07:02;;;;;;;;;;;21.20;47.80;;;;;;3134859;28;19925;-63
2021/12/01 04:08:35;;;;;;;;;;;21.20;47.80;;;;;;3131158;28;19924;-62
2021/12/01 04:10:07;;;;;;;;;;;21.10;47.70;;;;;;3127368;28;19948;-61
2021/12/01 04:11:39;;;;;;;;;;;21.20;47.70;;;;;;3134823;28;19928;-63
2021/12/01 04:13:11;;;;;;;;;;;21.10;47.70;;;;;;3129208;28;19925;-61
2021/12/01 04:14:42;;;;;;;;;;;21.20;47.70;;;;;;3133960;28;19979;-62
2021/12/01 04:16:14;;;;;;;;;;;21.10;47.80;;;;;;3133938;28;20253;-62
2021/12/01 04:17:46;;;;;;;;;;;21.20;47.80;;;;;;3134854;28;19925;-62
2021/12/01 04:19:17;;;;;;;;;;;21.20;47.70;;;;;;3124851;28;19925;-62
2021/12/01 04:20:49;;;;;;;;;;;21.20;47.70;;;;;;3135488;28;20653;-61
2021/12/01 04:22:20;;;;;;;;;;;21.20;47.70;;;;;;3138356;28;19925;-63
2021/12/01 04:23:53;;;;;;;;;;;21.10;48.30;;;;;;3139880;28;20373;-63
2021/12/01 04:25:25;;;;;;;;;;;21.20;47.70;;;;;;3134772;28;19932;-61
2021/12/01 04:26:56;;;;;;;;;;;21.10;47.70;;;;;;3135491;28;20305;-62
2021/12/01 04:28:28;;;;;;;;;;;21.10;47.70;;;;;;3134418;28;20021;-62
2021/12/01 04:29:59;;;;;;;;;;;21.10;47.80;;;;;;3134609;28;19929;-61
2021/12/01 04:31:32;;;;;;;;;;;21.20;47.80;;;;;;3133398;28;19931;-62
2021/12/01 04:33:03;;;;;;;;;;;21.10;47.70;;;;;;3146977;28;19975;-63
2021/12/01 04:34:35;;;;;;;;;;;21.10;47.80;;;;;;3137620;28;19925;-62
2021/12/01 04:36:05;;;;;;;;;;;21.10;47.70;;;;;;3134720;28;19932;-62
2021/12/01 04:37:37;;;;;;;;;;;21.10;47.70;;;;;;3134608;28;20295;-63
2021/12/01 04:39:10;;;;;;;;;;;21.10;47.70;;;;;;3134060;28;20339;-61
2021/12/01 04:40:42;;;;;;;;;;;21.10;47.80;;;;;;3124916;28;19925;-63
2021/12/01 04:42:13;;;;;;;;;;;21.10;47.80;;;;;;3132776;28;20054;-62
2021/12/01 04:43:44;;;;;;;;;;;21.10;47.80;;;;;;3132708;28;19925;-62
2021/12/01 04:45:17;;;;;;;;;;;21.10;47.90;;;;;;3133837;28;19927;-62
2021/12/01 04:46:49;;;;;;;;;;;21.10;47.80;;;;;;3134466;28;19931;-63
2021/12/01 04:48:20;;;;;;;;;;;21.10;47.80;;;;;;3133953;28;20000;-62
2021/12/01 04:49:51;;;;;;;;;;;21.10;47.80;;;;;;3129990;28;19933;-63
2021/12/01 04:51:22;;;;;;;;;;;21.20;47.80;;;;;;3141577;28;19921;-62
2021/12/01 04:52:55;;;;;;;;;;;21.20;47.70;;;;;;3137988;28;19929;-62
2021/12/01 04:54:29;;;;;;;;;;;21.20;47.60;;;;;;3138826;28;19925;-62
2021/12/01 04:56:00;;;;;;;;;;;21.20;47.70;;;;;;3130744;28;19929;-62
2021/12/01 04:57:32;;;;;;;;;;;21.20;47.70;;;;;;3134384;28;19925;-63
2021/12/01 04:59:03;;;;;;;;;;;21.20;47.60;;;;;;3133761;28;19928;-62
2021/12/01 05:00:36;;;;;;;;;;;21.30;47.60;;;;;;3132653;28;19925;-63
2021/12/01 05:02:08;;;;;;;;;;;21.20;47.60;;;;;;3133956;28;19979;-62
2021/12/01 05:03:39;;;;;;;;;;;21.20;47.50;;;;;;3133052;28;19929;-62
2021/12/01 05:05:11;;;;;;;;;;;21.20;47.50;;;;;;3134218;28;19928;-63
2021/12/01 05:06:43;;;;;;;;;;;21.30;47.50;;;;;;3134077;28;19986;-63
2021/12/01 05:08:15;;;;;;;;;;;21.30;47.50;;;;;;3131054;28;19967;-62
2021/12/01 05:09:47;;;;;;;;;;;21.30;47.40;;;;;;3133819;28;20382;-63
2021/12/01 05:11:19;;;;;;;;;;;21.30;47.40;;;;;;3128174;28;20093;-63
2021/12/01 05:12:51;;;;;;;;;;;21.30;47.40;;;;;;3132364;28;19936;-62
2021/12/01 05:14:24;;;;;;;;;;;21.40;47.40;;;;;;3133644;28;20369;-62
2021/12/01 05:15:56;;;;;;;;;;;21.30;47.30;;;;;;3133443;28;19925;-62
2021/12/01 05:17:28;;;;;;;;;;;21.30;47.30;;;;;;3133871;28;19975;-63
2021/12/01 05:19:00;;;;;;;;;;;21.40;47.30;;;;;;3133779;28;19925;-63
2021/12/01 05:20:31;;;;;;;;;;;21.30;47.30;;;;;;3134095;28;19924;-61
2021/12/01 05:22:03;;;;;;;;;;;21.40;47.20;;;;;;3134054;28;19983;-63
2021/12/01 05:23:35;;;;;;;;;;;21.40;47.20;;;;;;3142094;28;20435;-62
2021/12/01 05:25:08;;;;;;;;;;;21.40;47.20;;;;;;3141998;28;20039;-61
2021/12/01 05:26:40;;;;;;;;;;;21.40;47.20;;;;;;3134128;28;20403;-62
2021/12/01 05:28:11;;;;;;;;;;;21.40;47.20;;;;;;3133790;28;19924;-63
2021/12/01 05:29:43;;;;;;;;;;;21.40;47.20;;;;;;3133706;28;19925;-61
2021/12/01 05:31:14;;;;;;;;;;;21.40;47.20;;;;;;3133187;28;19932;-62
2021/12/01 05:32:47;;;;;;;;;;;21.40;47.20;;;;;;3133939;28;19967;-62
2021/12/01 05:34:18;;;;;;;;;;;21.40;47.20;;;;;;3133386;28;19925;-63
2021/12/01 05:35:50;;;;;;;;;;;21.40;47.20;;;;;;3133657;28;19929;-62
2021/12/01 05:37:21;;;;;;;;;;;21.40;47.20;;;;;;3134148;28;19924;-63
2021/12/01 05:38:53;;;;;;;;;;;21.40;47.20;;;;;;3133411;28;20206;-63
2021/12/01 05:40:26;;;;;;;;;;;21.40;47.20;;;;;;3133985;28;20372;-62
2021/12/01 05:41:58;;;;;;;;;;;21.50;47.30;;;;;;3133255;28;19925;-62
2021/12/01 05:43:29;;;;;;;;;;;21.50;47.30;;;;;;3134829;28;20011;-63
2021/12/01 05:45:01;;;;;;;;;;;21.50;47.30;;;;;;3134155;28;19925;-62
2021/12/01 05:46:33;;;;;;;;;;;21.50;47.80;;;;;;3132911;28;19925;-63
2021/12/01 05:48:04;;;;;;;;;;;21.50;47.10;;;;;;3133119;28;19982;-62
2021/12/01 05:49:41;;;;;;;;;;;21.50;47.00;;;;;;3137413;28;19928;-62
2021/12/01 05:51:13;;;;;;;;;;;21.60;47.10;;;;;;3139223;28;19928;-62
2021/12/01 05:52:44;;;;;;;;;;;21.50;47.30;;;;;;3133798;28;19925;-62
2021/12/01 05:54:16;;;;;;;;;;;21.50;47.80;;;;;;3131710;28;20026;-62
2021/12/01 05:55:49;;;;;;;;;;;21.50;48.30;;;;;;3129737;28;19931;-63
2021/12/01 05:57:20;;;;;;;;;;;21.50;48.30;;;;;;3131672;28;19952;-62
2021/12/01 05:58:52;;;;;;;;;;;21.60;48.20;;;;;;3130319;28;19933;-63
2021/12/01 06:00:23;;;;;;;;;;;21.50;48.20;;;;;;3132966;28;19978;-62
2021/12/01 06:01:55;;;;;;;;;;;21.50;48.30;;;;;;3133784;28;19987;-62
2021/12/01 06:03:27;;;;;;;;;;;21.50;48.40;;;;;;3133456;28;20281;-60
2021/12/01 06:04:58;;;;;;;;;;;21.50;48.40;;;;;;3134092;28;19932;-63
2021/12/01 06:06:30;;;;;;;;;;;21.60;48.50;;;;;;3133963;28;20285;-62
2021/12/01 06:08:01;;;;;;;;;;;21.60;48.50;;;;;;3133843;28;19924;-62
2021/12/01 06:09:33;;;;;;;;;;;21.60;48.80;;;;;;3132972;28;19924;-62
2021/12/01 06:11:06;;;;;;;;;;;21.60;48.80;;;;;;3133240;28;19928;-62
2021/12/01 06:12:39;;;;;;;;;;;21.60;48.90;;;;;;3132750;28;19983;-61
2021/12/01 06:14:12;;;;;;;;;;;21.70;49.00;;;;;;3139679;28;19928;-62
2021/12/01 06:15:44;;;;;;;;;;;21.70;49.10;;;;;;3140646;28;20034;-62
2021/12/01 06:17:16;;;;;;;;;;;21.60;49.00;;;;;;3133904;28;19963;-62
2021/12/01 06:18:47;;;;;;;;;;;21.60;49.10;;;;;;3133223;28;20605;-62
2021/12/01 06:20:19;;;;;;;;;;;21.70;49.20;;;;;;3133608;28;20020;-62
2021/12/01 06:21:50;;;;;;;;;;;21.70;49.30;;;;;;3144103;28;19928;-62
2021/12/01 06:23:22;;;;;;;;;;;21.70;49.30;;;;;;3132850;28;19924;-62
2021/12/01 06:24:53;;;;;;;;;;;21.70;49.20;;;;;;3133282;28;19939;-63
2021/12/01 06:26:26;;;;;;;;;;;21.70;49.20;;;;;;3133699;28;19948;-62
2021/12/01 06:28:00;;;;;;;;;;;21.70;49.30;;;;;;3132495;28;22077;-62
2021/12/01 06:29:32;;;;;;;;;;;21.90;50.10;;;;;;3132913;28;19925;-61
2021/12/01 06:31:03;;;;;;;;;;;22.40;49.70;;;;;;3132302;28;19947;-62
2021/12/01 06:32:35;;;;;;;;;;;22.70;48.70;;;;;;3133209;28;19924;-62
2021/12/01 06:34:06;;;;;;;;;;;22.80;48.30;;;;;;3132959;28;19925;-61
2021/12/01 06:35:38;;;;;;;;;;;22.80;48.40;;;;;;3133757;28;19925;-61
2021/12/01 06:37:09;;;;;;;;;;;22.80;48.90;;;;;;3133809;28;19925;-62
2021/12/01 06:38:41;;;;;;;;;;;22.80;49.30;;;;;;3132953;28;20007;-62
2021/12/01 06:40:13;;;;;;;;;;;22.80;49.50;;;;;;3133814;28;19956;-62
2021/12/01 06:41:46;;;;;;;;;;;22.90;49.80;;;;;;3133418;28;19933;-61
2021/12/01 06:43:18;;;;;;;;;;;22.90;49.70;;;;;;3133503;28;19924;-62
2021/12/01 06:44:49;;;;;;;;;;;22.80;50.30;;;;;;3133307;28;20438;-61
2021/12/01 06:46:22;;;;;;;;;;;22.50;51.10;;;;;;3132688;28;19932;-63
2021/12/01 06:47:53;;;;;;;;;;;22.40;51.80;;;;;;3133341;28;20281;-62
2021/12/01 06:49:25;;;;;;;;;;;22.40;52.50;;;;;;3132551;28;19925;-63
2021/12/01 06:50:56;;;;;;;;;;;22.30;52.90;;;;;;3133484;28;19924;-63
2021/12/01 06:52:28;;;;;;;;;;;22.20;53.40;;;;;;3133088;28;20004;-63
2021/12/01 06:54:00;;;;;;;;;;;22.10;53.80;;;;;;3134307;28;19929;-61
2021/12/01 06:55:31;;;;;;;;;;;22.10;53.40;;;;;;3140271;28;19929;-62
2021/12/01 06:57:04;;;;;;;;;;;22.10;53.20;;;;;;3130198;28;20002;-62
2021/12/01 06:58:36;;;;;;;;;;;22.10;53.10;;;;;;3133111;28;20435;-62
2021/12/01 07:00:08;;;;;;;;;;;22.00;53.00;;;;;;3132333;28;19925;-60
2021/12/01 07:01:40;;;;;;;;;;;22.00;53.10;;;;;;3133276;28;19931;-61
2021/12/01 07:03:11;;;;;;;;;;;22.00;53.10;;;;;;3133123;28;19939;-61
2021/12/01 07:04:43;;;;;;;;;;;21.90;53.00;;;;;;3133162;28;20389;-62
2021/12/01 07:06:15;;;;;;;;;;;21.90;53.00;;;;;;3133202;28;19932;-62
2021/12/01 07:07:46;;;;;;;;;;;21.90;52.90;;;;;;3135480;28;19932;-61
2021/12/01 07:09:20;;;;;;;;;;;21.90;52.80;;;;;;3135656;28;19925;-62
2021/12/01 07:10:52;;;;;;;;;;;21.80;52.70;;;;;;3136205;28;19929;-62
2021/12/01 07:12:25;;;;;;;;;;;21.80;52.70;;;;;;3135998;28;20285;-62
2021/12/01 07:13:57;;;;;;;;;;;21.80;52.50;;;;;;3135354;28;19928;-61
2021/12/01 07:15:28;;;;;;;;;;;21.80;52.40;;;;;;3135204;28;19979;-62
2021/12/01 07:17:00;;;;;;;;;;;21.80;52.30;;;;;;3136115;28;19929;-62
2021/12/01 07:18:31;;;;;;;;;;;21.80;52.10;;;;;;3135303;28;19949;-62
2021/12/01 07:20:03;;;;;;;;;;;21.80;52.00;;;;;;3135856;28;19975;-61
2021/12/01 07:21:35;;;;;;;;;;;21.80;52.00;;;;;;3144556;28;19924;-62
2021/12/01 07:23:07;;;;;;;;;;;21.80;51.90;;;;;;3143177;28;20649;-62
2021/12/01 07:24:38;;;;;;;;;;;21.90;51.70;;;;;;3135344;28;19925;-62
2021/12/01 07:26:10;;;;;;;;;;;21.80;51.60;;;;;;3135799;28;20352;-62
2021/12/01 07:27:43;;;;;;;;;;;21.80;51.50;;;;;;3135598;28;19933;-61
2021/12/01 07:29:15;;;;;;;;;;;21.80;51.30;;;;;;3135154;28;19932;-63
2021/12/01 07:30:47;;;;;;;;;;;21.80;51.20;;;;;;3134845;28;19936;-63
2021/12/01 07:32:19;;;;;;;;;;;21.80;51.20;;;;;;3135826;28;19931;-61
2021/12/01 07:33:50;;;;;;;;;;;21.80;51.00;;;;;;3135236;28;19970;-61
2021/12/01 07:35:22;;;;;;;;;;;21.80;50.80;;;;;;3135889;28;19928;-60
2021/12/01 07:36:53;;;;;;;;;;;21.80;50.80;;;;;;3135543;28;19979;-62
2021/12/01 07:38:25;;;;;;;;;;;21.80;50.60;;;;;;3135186;28;19975;-62
2021/12/01 07:39:56;;;;;;;;;;;21.90;50.50;;;;;;3135663;28;19931;-62
2021/12/01 07:41:28;;;;;;;;;;;21.90;50.30;;;;;;3135498;28;19932;-61
2021/12/01 07:43:01;;;;;;;;;;;21.90;50.20;;;;;;3135442;28;20329;-62
2021/12/01 07:44:32;;;;;;;;;;;22.00;50.20;;;;;;3134748;28;20004;-62
2021/12/01 07:46:04;;;;;;;;;;;22.00;50.10;;;;;;3134709;28;20594;-62
2021/12/01 07:47:36;;;;;;;;;;;21.90;50.00;;;;;;3135377;28;19924;-62
2021/12/01 07:49:07;;;;;;;;;;;21.90;50.00;;;;;;3134727;28;19932;-62
2021/12/01 07:50:39;;;;;;;;;;;21.90;50.00;;;;;;3135617;28;20285;-61
2021/12/01 07:52:10;;;;;;;;;;;21.90;49.90;;;;;;3135287;28;19925;-62
2021/12/01 07:53:42;;;;;;;;;;;21.80;49.80;;;;;;3140330;28;19932;-63
2021/12/01 07:55:13;;;;;;;;;;;21.90;49.80;;;;;;3135363;28;19979;-62
2021/12/01 07:56:45;;;;;;;;;;;21.90;49.60;;;;;;3135456;28;19925;-61
2021/12/01 07:58:18;;;;;;;;;;;21.90;49.50;;;;;;3135428;28;19986;-62
2021/12/01 07:59:50;;;;;;;;;;;21.90;49.30;;;;;;3134822;28;19974;-62
2021/12/01 08:01:21;;;;;;;;;;;21.90;49.30;;;;;;3134365;28;19925;-61
2021/12/01 08:02:53;;;;;;;;;;;21.90;49.20;;;;;;3135364;28;19933;-62
2021/12/01 08:04:24;;;;;;;;;;;21.90;49.20;;;;;;3133733;28;19925;-62
2021/12/01 08:05:56;;;;;;;;;;;21.90;49.10;;;;;;3122969;28;19929;-62
2021/12/01 08:07:28;;;;;;;;;;;21.90;49.00;;;;;;3123022;28;19925;-61
2021/12/01 08:09:00;;;;;;;;;;;21.90;48.90;;;;;;3122612;28;19925;-61
2021/12/01 08:10:32;;;;;;;;;;;21.90;48.80;;;;;;3130128;28;20404;-61
2021/12/01 08:12:03;;;;;;;;;;;21.90;48.80;;;;;;3135261;28;20365;-62
2021/12/01 08:13:36;;;;;;;;;;;21.90;48.70;;;;;;3134628;28;19924;-62
2021/12/01 08:15:08;;;;;;;;;;;21.90;48.60;;;;;;3134686;28;20299;-61
2021/12/01 08:16:40;;;;;;;;;;;22.00;48.60;;;;;;3135381;28;20400;-62
2021/12/01 08:18:11;;;;;;;;;;;22.00;48.60;;;;;;3134554;28;19925;-62
2021/12/01 08:19:43;;;;;;;;;;;21.90;48.50;;;;;;3134437;28;19975;-62
2021/12/01 08:21:15;;;;;;;;;;;21.90;48.50;;;;;;3135080;28;20292;-62
2021/12/01 08:22:47;;;;;;;;;;;21.90;48.50;;;;;;3143190;28;19947;-61
2021/12/01 08:24:18;;;;;;;;;;;21.90;48.40;;;;;;3134590;28;19947;-62
2021/12/01 08:25:50;;;;;;;;;;;21.90;48.30;;;;;;3135214;28;19924;-62
2021/12/01 08:27:21;;;;;;;;;;;21.90;48.30;;;;;;3135276;28;20259;-62
2021/12/01 08:28:54;;;;;;;;;;;21.80;48.30;;;;;;3134304;28;19964;-61
2021/12/01 08:30:26;;;;;;;;;;;21.90;48.20;;;;;;3134563;28;19925;-63
2021/12/01 08:31:59;;;;;;;;;;;21.90;48.10;;;;;;3135050;28;20024;-62
2021/12/01 08:33:30;;;;;;;;;;;21.90;48.00;;;;;;3134655;28;19932;-62
2021/12/01 08:35:02;;;;;;;;;;;21.90;48.00;;;;;;3135075;28;19928;-62
2021/12/01 08:36:33;;;;;;;;;;;21.90;47.90;;;;;;3135199;28;19963;-62
2021/12/01 08:38:05;;;;;;;;;;;21.80;48.00;;;;;;3134816;28;20006;-62
2021/12/01 08:39:37;;;;;;;;;;;21.80;47.80;;;;;;3134409;28;19925;-63
2021/12/01 08:41:08;;;;;;;;;;;21.80;47.90;;;;;;3134829;28;19925;-62
2021/12/01 08:42:40;;;;;;;;;;;21.80;47.70;;;;;;3134528;28;19925;-62
2021/12/01 08:44:13;;;;;;;;;;;21.80;47.60;;;;;;3134607;28;19986;-60
2021/12/01 08:45:45;;;;;;;;;;;21.80;47.40;;;;;;3133976;28;19932;-62
2021/12/01 08:47:17;;;;;;;;;;;21.70;47.40;;;;;;3134652;28;19925;-62
2021/12/01 08:48:49;;;;;;;;;;;21.80;47.40;;;;;;3134441;28;20377;-62
2021/12/01 08:50:21;;;;;;;;;;;21.70;47.40;;;;;;3134912;28;19932;-62
2021/12/01 08:51:52;;;;;;;;;;;21.70;47.40;;;;;;3137679;28;19933;-61
2021/12/01 08:53:24;;;;;;;;;;;21.80;47.30;;;;;;3139148;28;20471;-62
2021/12/01 08:54:55;;;;;;;;;;;21.80;47.20;;;;;;3134468;28;19925;-63
2021/12/01 08:56:27;;;;;;;;;;;21.80;47.10;;;;;;3134826;28;19975;-62
2021/12/01 08:57:58;;;;;;;;;;;21.80;47.00;;;;;;3134321;28;20293;-61
2021/12/01 08:59:31;;;;;;;;;;;21.80;46.90;;;;;;3134291;28;19947;-62